Time;durP1;ratioP1;P1;durP2;ratioP2;P2;SDS_P1;SDS_P2;PMS_P1;PMS_P2;Temp;Humidity;BMP_temperature;BMP_pressure;BME280_temperature;BME280_humidity;BME280_pressure;Samples;Min_cycle;Max_cycle;Signal;HPM_P1;HPM_P2
2022/05/14 00:01:58;;;;;;;32.08;9.60;;;12.70;99.90;;;;;;5051986;28;20020;-63
2022/05/14 00:04:24;;;;;;;31.95;9.73;;;12.70;99.90;;;;;;5051763;28;20031;-64
2022/05/14 00:06:49;;;;;;;25.50;6.88;;;12.70;99.90;;;;;;5051718;28;20505;-64
2022/05/14 00:09:15;;;;;;;39.85;10.68;;;12.70;99.90;;;;;;5051764;28;20357;-64
2022/05/14 00:14:25;;;;;;;29.08;7.05;;;12.80;99.90;;;;;;5049001;28;20036;-62
2022/05/14 00:16:51;;;;;;;36.17;7.70;;;12.80;99.90;;;;;;5051168;28;20037;-62
2022/05/14 00:19:18;;;;;;;31.30;8.55;;;12.90;99.90;;;;;;5051331;28;20032;-64
2022/05/14 00:21:44;;;;;;;30.23;9.15;;;12.90;99.90;;;;;;5051956;28;20025;-63
2022/05/14 00:24:10;;;;;;;35.10;9.15;;;12.90;99.90;;;;;;5052116;28;20464;-63
2022/05/14 00:26:37;;;;;;;36.25;8.07;;;13.00;99.90;;;;;;5051978;28;20420;-62
2022/05/14 00:29:05;;;;;;;35.25;11.48;;;13.00;99.90;;;;;;5052048;28;20108;-66
2022/05/14 00:31:31;;;;;;;39.50;12.18;;;13.00;99.90;;;;;;5051667;28;20013;-62
2022/05/14 00:33:56;;;;;;;36.85;10.00;;;13.10;99.90;;;;;;5050192;28;20039;-66
2022/05/14 00:36:23;;;;;;;37.03;9.60;;;13.10;99.90;;;;;;5051460;28;20040;-64
2022/05/14 00:38:49;;;;;;;42.92;10.68;;;13.10;99.90;;;;;;5051732;28;20021;-63
2022/05/14 00:41:15;;;;;;;30.58;7.95;;;13.10;99.90;;;;;;5052075;28;20013;-63
2022/05/14 00:43:54;;;;;;;37.40;7.47;;;13.10;99.90;;;;;;5050709;28;20031;-66
2022/05/14 00:46:28;;;;;;;32.22;7.30;;;13.10;99.90;;;;;;5052235;28;20448;-64
2022/05/14 00:48:57;;;;;;;32.80;9.85;;;13.20;99.90;;;;;;5051706;28;20078;-64
2022/05/14 00:51:28;;;;;;;39.17;9.82;;;13.20;99.90;;;;;;5051581;28;20108;-65
2022/05/14 00:53:59;;;;;;;39.33;11.80;;;13.20;99.90;;;;;;5051956;28;20070;-64
2022/05/14 00:56:29;;;;;;;38.57;9.47;;;13.20;99.90;;;;;;5051868;28;20362;-66
2022/05/14 00:59:08;;;;;;;28.83;8.18;;;13.10;99.90;;;;;;5051705;28;20021;-63
2022/05/14 01:01:35;;;;;;;33.22;8.13;;;13.00;99.90;;;;;;5052673;28;20027;-64
2022/05/14 01:04:01;;;;;;;34.83;10.23;;;13.00;99.90;;;;;;5055241;28;20032;-64
2022/05/14 01:06:31;;;;;;;32.22;7.10;;;13.00;99.90;;;;;;5054957;28;20024;-67
2022/05/14 01:09:00;;;;;;;38.97;8.63;;;13.00;99.90;;;;;;5055237;28;20524;-68
2022/05/14 01:11:28;;;;;;;32.55;8.95;;;12.90;99.90;;;;;;5055059;28;20028;-66
2022/05/14 01:13:54;;;;;;;34.15;7.05;;;12.90;99.90;;;;;;5054895;28;20492;-66
2022/05/14 01:16:20;;;;;;;28.65;7.95;;;12.90;99.90;;;;;;5054862;28;20037;-66
2022/05/14 01:18:45;;;;;;;36.05;7.18;;;12.90;99.90;;;;;;5054964;28;20225;-64
2022/05/14 01:21:32;;;;;;;33.53;7.03;;;12.90;99.90;;;;;;5053555;28;20031;-64
2022/05/14 01:26:47;;;;;;;38.95;11.02;;;12.80;99.90;;;;;;5054569;28;20090;-63
2022/05/14 01:29:22;;;;;;;35.88;10.00;;;12.80;99.90;;;;;;5054634;28;20029;-67
2022/05/14 01:31:49;;;;;;;33.50;7.97;;;12.70;99.90;;;;;;5054716;28;20025;-64
2022/05/14 01:34:28;;;;;;;41.10;10.82;;;12.70;99.90;;;;;;5054276;28;20052;-61
2022/05/14 01:36:55;;;;;;;35.58;7.82;;;12.70;99.90;;;;;;5054321;28;20033;-61
2022/05/14 01:39:20;;;;;;;32.22;7.40;;;12.60;99.90;;;;;;5054712;28;20021;-65
2022/05/14 01:41:46;;;;;;;32.83;9.25;;;12.60;99.90;;;;;;5054545;28;20031;-62
2022/05/14 01:44:12;;;;;;;39.30;10.02;;;12.60;99.90;;;;;;5054580;28;20475;-62
2022/05/14 01:46:38;;;;;;;37.45;7.82;;;12.60;99.90;;;;;;5054294;28;20021;-63
2022/05/14 01:49:04;;;;;;;29.13;8.13;;;12.60;99.90;;;;;;5054488;28;20037;-65
2022/05/14 01:51:31;;;;;;;42.47;8.32;;;12.50;99.90;;;;;;5054199;28;20082;-63
2022/05/14 01:53:56;;;;;;;31.60;7.78;;;12.50;99.90;;;;;;5054079;28;20025;-63
2022/05/14 01:56:22;;;;;;;38.88;8.27;;;12.50;99.90;;;;;;5054335;28;20033;-64
2022/05/14 01:58:47;;;;;;;37.50;8.68;;;12.50;99.90;;;;;;5054235;28;20024;-64
2022/05/14 02:01:27;;;;;;;35.00;7.88;;;12.50;99.90;;;;;;5053933;28;20068;-63
2022/05/14 02:03:56;;;;;;;40.17;9.20;;;12.50;99.90;;;;;;5054191;28;20021;-64
2022/05/14 02:06:22;;;;;;;38.63;8.68;;;12.40;99.90;;;;;;5053935;28;20037;-64
2022/05/14 02:08:48;;;;;;;32.97;7.97;;;12.40;99.90;;;;;;5054236;28;20033;-63
2022/05/14 02:11:15;;;;;;;28.25;7.65;;;12.40;99.90;;;;;;5053804;28;20036;-65
2022/05/14 02:13:41;;;;;;;34.63;8.45;;;12.40;99.90;;;;;;5053505;28;20040;-63
2022/05/14 02:16:08;;;;;;;39.03;8.50;;;12.40;99.90;;;;;;5053868;28;20021;-64
2022/05/14 02:18:34;;;;;;;35.22;7.55;;;12.30;99.90;;;;;;5053932;28;20029;-65
2022/05/14 02:21:00;;;;;;;35.05;8.45;;;12.30;99.90;;;;;;5053785;28;20120;-66
2022/05/14 02:23:25;;;;;;;32.70;8.88;;;12.30;99.90;;;;;;5053750;28;20107;-67
2022/05/14 02:25:51;;;;;;;33.38;7.55;;;12.30;99.90;;;;;;5053858;28;20025;-63
2022/05/14 02:28:17;;;;;;;31.70;8.15;;;12.20;99.90;;;;;;5053769;28;20025;-66
2022/05/14 02:30:42;;;;;;;34.13;7.22;;;12.20;99.90;;;;;;5053670;28;20095;-67
2022/05/14 02:33:09;;;;;;;38.67;9.00;;;12.20;99.90;;;;;;5053591;28;20018;-64
2022/05/14 02:35:35;;;;;;;32.83;9.25;;;12.20;99.90;;;;;;5053322;28;20389;-65
2022/05/14 02:38:01;;;;;;;35.13;9.57;;;12.10;99.90;;;;;;5053492;28;20108;-65
2022/05/14 02:40:27;;;;;;;38.30;8.65;;;12.10;99.90;;;;;;5053440;28;20099;-67
2022/05/14 02:42:53;;;;;;;38.78;8.63;;;12.10;99.90;;;;;;5053396;28;20017;-65
2022/05/14 02:45:19;;;;;;;40.88;8.70;;;12.00;99.90;;;;;;5053279;28;20100;-63
2022/05/14 02:47:45;;;;;;;37.42;8.98;;;12.00;99.90;;;;;;5053115;28;20036;-65
2022/05/14 02:50:11;;;;;;;27.77;8.52;;;12.00;99.90;;;;;;5053235;28;20017;-64
2022/05/14 02:52:38;;;;;;;41.55;10.02;;;12.00;99.90;;;;;;5053144;28;20074;-62
2022/05/14 02:55:06;;;;;;;39.90;8.95;;;11.90;99.90;;;;;;5053194;28;20021;-64
2022/05/14 02:57:32;;;;;;;38.35;8.70;;;11.90;99.90;;;;;;5051824;28;20033;-64
2022/05/14 02:59:57;;;;;;;38.97;8.65;;;11.90;99.90;;;;;;5053072;28;20025;-65
2022/05/14 03:02:23;;;;;;;37.00;9.73;;;11.80;99.90;;;;;;5052555;28;20462;-62
2022/05/14 03:04:49;;;;;;;41.13;11.63;;;11.80;99.90;;;;;;5053047;28;20361;-63
2022/05/14 03:07:15;;;;;;;40.88;10.30;;;11.80;99.90;;;;;;5052989;28;20021;-64
2022/05/14 03:09:42;;;;;;;36.38;11.15;;;11.70;99.90;;;;;;5052725;28;20388;-66
2022/05/14 03:12:10;;;;;;;35.38;9.20;;;11.70;99.90;;;;;;5052723;28;20108;-63
2022/05/14 03:14:36;;;;;;;39.22;11.00;;;11.70;99.90;;;;;;5052630;28;20108;-64
2022/05/14 03:17:02;;;;;;;34.80;8.57;;;11.60;99.90;;;;;;5050916;28;20111;-65
2022/05/14 03:19:27;;;;;;;45.50;12.75;;;11.60;99.90;;;;;;5052714;28;20114;-65
2022/05/14 03:21:53;;;;;;;34.53;8.20;;;11.60;99.90;;;;;;5052785;28;20032;-62
2022/05/14 03:24:19;;;;;;;38.38;9.68;;;11.60;99.90;;;;;;5051808;28;20091;-62
2022/05/14 03:26:45;;;;;;;39.70;10.65;;;11.50;99.90;;;;;;5052692;28;20071;-62
2022/05/14 03:29:11;;;;;;;36.38;8.45;;;11.50;99.90;;;;;;5050810;28;20025;-66
2022/05/14 03:31:38;;;;;;;34.83;9.05;;;11.50;99.90;;;;;;5052285;28;20021;-65
2022/05/14 03:34:04;;;;;;;36.15;9.32;;;11.50;99.90;;;;;;5052740;28;20020;-64
2022/05/14 03:36:30;;;;;;;43.50;9.50;;;11.50;99.90;;;;;;5052328;28;20064;-64
2022/05/14 03:38:55;;;;;;;45.20;9.90;;;11.40;99.90;;;;;;5051144;28;20056;-63
2022/05/14 03:41:22;;;;;;;40.80;9.80;;;11.50;99.90;;;;;;5052541;28;20025;-63
2022/05/14 03:43:48;;;;;;;42.25;10.30;;;11.50;99.90;;;;;;5052798;28;20029;-65
2022/05/14 03:46:15;;;;;;;36.97;10.02;;;11.50;99.90;;;;;;5052206;28;20108;-62
2022/05/14 03:48:41;;;;;;;31.75;9.68;;;11.40;99.90;;;;;;5052320;28;20029;-66
2022/05/14 03:51:07;;;;;;;39.85;10.63;;;11.40;99.90;;;;;;5052250;28;20044;-67
2022/05/14 03:53:34;;;;;;;36.05;10.40;;;11.40;99.90;;;;;;5052112;28;20021;-63
2022/05/14 03:55:59;;;;;;;29.40;8.77;;;11.40;99.90;;;;;;5051860;28;20466;-63
2022/05/14 03:58:25;;;;;;;41.67;11.75;;;11.40;99.90;;;;;;5051889;28;20031;-63
2022/05/14 04:00:51;;;;;;;44.47;10.52;;;11.40;99.90;;;;;;5051969;28;20338;-66
2022/05/14 04:03:16;;;;;;;27.48;9.88;;;11.40;99.90;;;;;;5052039;28;20025;-64
2022/05/14 04:05:42;;;;;;;33.63;10.25;;;11.40;99.90;;;;;;5051984;28;20025;-65
2022/05/14 04:08:08;;;;;;;34.78;9.85;;;11.40;99.90;;;;;;5051921;28;20461;-65
2022/05/14 04:10:34;;;;;;;37.30;10.52;;;11.40;99.90;;;;;;5051932;28;20052;-66
2022/05/14 04:12:59;;;;;;;33.15;10.05;;;11.40;99.90;;;;;;5052190;28;20063;-64
2022/05/14 04:15:26;;;;;;;30.70;8.50;;;11.40;99.90;;;;;;5051856;28;20044;-63
2022/05/14 04:17:53;;;;;;;41.75;9.10;;;11.40;99.90;;;;;;5052110;28;20159;-65
2022/05/14 04:20:19;;;;;;;29.42;9.43;;;11.40;99.90;;;;;;5052078;28;20021;-65
2022/05/14 04:22:44;;;;;;;30.48;8.90;;;11.40;99.90;;;;;;5051584;28;20087;-64
2022/05/14 04:25:11;;;;;;;39.55;9.82;;;11.40;99.90;;;;;;5049597;28;20419;-62
2022/05/14 04:27:37;;;;;;;33.67;9.23;;;11.50;99.90;;;;;;5050338;28;20075;-63
2022/05/14 04:30:04;;;;;;;30.45;8.23;;;11.50;99.90;;;;;;5050013;28;20481;-64
2022/05/14 04:32:29;;;;;;;38.35;10.05;;;11.60;99.90;;;;;;5051575;28;20372;-68
2022/05/14 04:34:56;;;;;;;35.38;9.40;;;11.60;99.90;;;;;;5051817;28;20100;-63
2022/05/14 04:37:21;;;;;;;30.33;9.02;;;11.60;99.90;;;;;;5055464;28;20040;-64
2022/05/14 04:39:49;;;;;;;39.85;9.65;;;11.70;99.90;;;;;;5055571;28;20416;-66
2022/05/14 04:42:15;;;;;;;34.80;10.40;;;11.70;99.90;;;;;;5055609;28;20032;-63
2022/05/14 04:44:41;;;;;;;33.95;9.40;;;11.70;99.90;;;;;;5055523;28;20020;-62
2022/05/14 04:47:06;;;;;;;31.73;9.93;;;11.70;99.90;;;;;;5055706;28;20361;-67
2022/05/14 04:49:37;;;;;;;35.72;9.73;;;11.80;99.90;;;;;;5055587;28;20479;-65
2022/05/14 04:52:02;;;;;;;35.65;10.70;;;11.80;99.90;;;;;;5055960;28;20061;-64
2022/05/14 04:54:28;;;;;;;35.55;13.27;;;11.90;99.90;;;;;;5055061;28;20020;-66
2022/05/14 04:56:53;;;;;;;35.80;9.05;;;11.90;99.90;;;;;;5054883;28;20036;-68
2022/05/14 04:59:19;;;;;;;39.53;11.65;;;12.00;99.90;;;;;;5055469;28;20365;-66
2022/05/14 05:04:31;;;;;;;34.70;10.57;;;12.10;99.90;;;;;;5055282;28;20032;-64
2022/05/14 05:06:57;;;;;;;36.00;10.65;;;12.20;99.90;;;;;;5055196;28;20033;-63
2022/05/14 05:09:23;;;;;;;26.92;7.97;;;12.20;99.90;;;;;;5055192;28;20468;-63
2022/05/14 05:11:50;;;;;;;37.00;8.77;;;12.30;99.90;;;;;;5055119;28;20032;-65
2022/05/14 05:14:16;;;;;;;29.60;8.85;;;12.40;99.90;;;;;;5055220;28;20032;-63
2022/05/14 05:16:42;;;;;;;34.78;8.88;;;12.50;99.90;;;;;;5053773;28;20377;-65
2022/05/14 05:19:07;;;;;;;26.60;8.68;;;12.50;99.90;;;;;;5055027;28;20029;-65
2022/05/14 05:21:33;;;;;;;29.58;8.90;;;12.60;99.90;;;;;;5054656;28;20021;-67
2022/05/14 05:23:59;;;;;;;28.58;9.18;;;12.70;99.90;;;;;;5054506;28;20105;-63
2022/05/14 05:26:24;;;;;;;29.42;7.43;;;12.80;99.90;;;;;;5054829;28;20143;-64
2022/05/14 05:28:50;;;;;;;29.33;8.73;;;12.90;99.90;;;;;;5054721;28;20090;-65
2022/05/14 05:31:17;;;;;;;26.55;7.43;;;13.00;99.90;;;;;;5054671;28;20233;-64
2022/05/14 05:33:43;;;;;;;28.40;8.65;;;13.10;99.90;;;;;;5054457;28;20078;-64
2022/05/14 05:36:08;;;;;;;28.90;8.48;;;13.20;99.90;;;;;;5054580;28;20032;-65
2022/05/14 05:38:34;;;;;;;30.67;7.90;;;13.40;99.90;;;;;;5054868;28;20021;-63
2022/05/14 05:40:59;;;;;;;27.00;8.50;;;13.50;99.90;;;;;;5054718;28;20025;-68
2022/05/14 05:43:25;;;;;;;27.88;8.88;;;13.60;99.90;;;;;;5054695;28;20017;-66
2022/05/14 05:45:50;;;;;;;27.52;8.77;;;13.70;99.90;;;;;;5054730;28;20450;-65
2022/05/14 05:48:17;;;;;;;24.52;7.05;;;13.80;99.90;;;;;;5053475;28;20475;-61
2022/05/14 05:50:44;;;;;;;32.55;8.05;;;14.00;99.90;;;;;;5054494;28;20028;-64
2022/05/14 05:53:10;;;;;;;26.58;8.35;;;14.20;99.90;;;;;;5053853;28;20017;-67
2022/05/14 05:58:20;;;;;;;27.48;8.63;;;14.80;99.90;;;;;;5053957;28;20028;-66
2022/05/14 06:00:47;;;;;;;22.90;7.72;;;15.30;99.90;;;;;;5054289;28;20017;-61
2022/05/14 06:03:12;;;;;;;19.42;4.90;;;15.80;99.90;;;;;;5052984;28;20350;-63
2022/05/14 06:05:39;;;;;;;22.17;7.78;;;16.40;99.90;;;;;;5053999;28;20032;-64
2022/05/14 06:08:09;;;;;;;22.42;5.82;;;17.00;99.90;;;;;;5054196;28;20017;-65
2022/05/14 06:10:35;;;;;;;25.02;6.00;;;17.50;99.90;;;;;;5054609;28;20024;-62
2022/05/14 06:13:01;;;;;;;17.98;5.07;;;18.00;99.90;;;;;;5053955;28;20025;-66
2022/05/14 06:15:26;;;;;;;20.88;4.20;;;18.50;99.90;;;;;;5053958;28;20017;-63
2022/05/14 06:17:52;;;;;;;16.15;4.40;;;19.20;99.90;;;;;;5053605;28;20017;-67
2022/05/14 06:20:18;;;;;;;20.17;5.45;;;19.80;99.90;;;;;;5053423;28;20453;-66
2022/05/14 06:22:44;;;;;;;18.67;4.32;;;20.60;99.90;;;;;;5053784;28;20021;-67
2022/05/14 06:25:11;;;;;;;24.83;7.30;;;21.50;99.90;;;;;;5053862;28;20075;-65
2022/05/14 06:27:37;;;;;;;23.20;6.57;;;22.40;99.90;;;;;;5053686;28;20142;-65
2022/05/14 06:30:04;;;;;;;19.80;4.55;;;23.10;99.90;;;;;;5053620;28;20052;-63
2022/05/14 06:32:29;;;;;;;17.45;5.00;;;23.80;99.90;;;;;;5053491;28;20049;-62
2022/05/14 06:34:55;;;;;;;17.83;6.72;;;24.30;99.40;;;;;;5053533;28;20067;-66
2022/05/14 06:37:20;;;;;;;19.88;5.63;;;24.50;98.20;;;;;;5053416;28;20388;-64
2022/05/14 06:39:46;;;;;;;21.38;6.05;;;24.80;97.70;;;;;;5053277;28;20432;-67
2022/05/14 06:42:13;;;;;;;22.27;4.82;;;25.10;97.10;;;;;;5053321;28;20032;-64
2022/05/14 06:44:39;;;;;;;15.80;4.40;;;25.30;96.30;;;;;;5053170;28;20028;-62
2022/05/14 06:47:05;;;;;;;17.25;4.95;;;25.40;95.50;;;;;;5053374;28;20035;-63
2022/05/14 06:49:31;;;;;;;21.60;5.43;;;25.80;95.60;;;;;;5052991;28;20099;-64
2022/05/14 06:52:00;;;;;;;22.58;5.00;;;26.20;95.10;;;;;;5053167;28;20016;-66
2022/05/14 06:54:27;;;;;;;19.95;4.75;;;26.60;94.40;;;;;;5053057;28;20013;-66
2022/05/14 06:56:52;;;;;;;17.33;4.90;;;26.90;93.30;;;;;;5052749;28;20377;-65
2022/05/14 06:59:18;;;;;;;15.68;4.82;;;27.10;92.60;;;;;;5052128;28;20032;-66
2022/05/14 07:01:46;;;;;;;17.92;4.72;;;27.30;92.50;;;;;;5053289;28;20357;-67
2022/05/14 07:07:00;;;;;;;21.77;5.35;;;27.80;91.40;;;;;;5052791;28;20027;-66
2022/05/14 07:09:29;;;;;;;13.43;3.70;;;28.00;90.70;;;;;;5051768;28;20115;-67
2022/05/14 07:12:03;;;;;;;20.75;4.90;;;28.00;90.10;;;;;;5052625;28;20021;-66
2022/05/14 07:14:30;;;;;;;21.35;7.50;;;28.00;89.60;;;;;;5052205;28;20013;-65
2022/05/14 07:16:56;;;;;;;20.17;4.88;;;27.60;89.10;;;;;;5052709;28;20036;-64
2022/05/14 07:19:22;;;;;;;14.68;4.60;;;27.20;89.60;;;;;;5052574;28;20021;-64
2022/05/14 07:21:49;;;;;;;21.60;5.65;;;26.80;90.00;;;;;;5052734;28;20373;-66
2022/05/14 07:24:17;;;;;;;19.52;6.95;;;26.20;90.40;;;;;;5052451;28;20025;-63
2022/05/14 07:26:43;;;;;;;16.58;4.75;;;25.90;90.80;;;;;;5052703;28;20033;-63
2022/05/14 07:29:15;;;;;;;28.00;8.38;;;25.50;90.90;;;;;;5051970;28;20028;-63
2022/05/14 07:31:41;;;;;;;21.23;6.30;;;25.10;91.60;;;;;;5052655;28;20032;-68
2022/05/14 07:34:08;;;;;;;21.00;5.55;;;24.80;92.20;;;;;;5052866;28;20033;-65
2022/05/14 07:36:40;;;;;;;25.23;7.25;;;24.50;92.50;;;;;;5052723;28;20036;-67
2022/05/14 07:39:06;;;;;;;24.70;5.63;;;24.20;92.50;;;;;;5052638;28;20043;-64
2022/05/14 07:41:34;;;;;;;15.68;4.55;;;23.90;93.00;;;;;;5052316;28;20017;-65
2022/05/14 07:44:01;;;;;;;14.05;4.00;;;23.60;93.30;;;;;;5052182;28;20035;-62
2022/05/14 07:46:32;;;;;;;16.83;4.78;;;23.40;93.90;;;;;;5051816;28;20029;-66
2022/05/14 07:49:00;;;;;;;19.33;4.93;;;23.30;94.50;;;;;;5052611;28;20035;-64
2022/05/14 07:51:26;;;;;;;17.23;4.43;;;23.20;93.90;;;;;;5052182;28;20416;-63
2022/05/14 07:53:53;;;;;;;18.67;5.45;;;23.20;94.10;;;;;;5052202;28;20061;-61
2022/05/14 07:56:18;;;;;;;21.20;4.53;;;23.40;93.80;;;;;;5051719;28;20061;-64
2022/05/14 07:58:45;;;;;;;18.77;4.57;;;23.60;93.90;;;;;;5052385;28;20432;-67
2022/05/14 08:01:11;;;;;;;17.85;4.30;;;23.90;93.70;;;;;;5052357;28;20017;-62
2022/05/14 08:03:36;;;;;;;19.77;5.57;;;24.30;92.80;;;;;;5051572;28;20019;-65
2022/05/14 08:06:03;;;;;;;18.27;4.72;;;24.80;92.60;;;;;;5051547;28;20423;-63
2022/05/14 08:08:29;;;;;;;18.00;4.22;;;25.30;91.80;;;;;;5051406;28;20032;-63
2022/05/14 08:10:55;;;;;;;15.52;3.70;;;26.00;90.40;;;;;;5053787;28;20021;-64
2022/05/14 08:13:23;;;;;;;16.58;4.00;;;26.70;88.50;;;;;;5055858;28;20066;-64
2022/05/14 08:15:50;;;;;;;14.90;3.53;;;27.70;85.80;;;;;;5052393;28;20024;-62
2022/05/14 08:18:16;;;;;;;12.73;3.83;;;28.60;81.90;;;;;;5055884;28;20103;-64
2022/05/14 08:20:44;;;;;;;16.75;4.25;;;29.10;78.90;;;;;;5055968;28;20258;-64
2022/05/14 08:25:56;;;;;;;17.95;3.75;;;30.50;77.80;;;;;;5055825;28;20488;-64
2022/05/14 08:28:22;;;;;;;13.73;3.58;;;31.40;75.00;;;;;;5055637;28;20059;-66
2022/05/14 08:30:47;;;;;;;15.43;4.00;;;32.20;72.30;;;;;;5055451;28;20072;-63
2022/05/14 08:33:13;;;;;;;16.10;4.05;;;32.90;70.70;;;;;;5056188;28;20025;-65
2022/05/14 08:35:39;;;;;;;13.65;3.53;;;33.50;68.10;;;;;;5053362;28;20025;-67
2022/05/14 08:38:06;;;;;;;15.55;3.17;;;33.80;64.50;;;;;;5055593;28;20029;-64
2022/05/14 08:40:59;;;;;;;16.40;5.20;;;33.90;63.90;;;;;;5055592;28;20017;-65
2022/05/14 08:43:47;;;;;;;17.75;3.47;;;34.30;63.60;;;;;;5055680;28;20084;-65
2022/05/14 08:46:16;;;;;;;16.30;4.43;;;34.90;61.60;;;;;;5055164;28;20033;-63
2022/05/14 08:48:43;;;;;;;17.02;3.58;;;35.20;60.40;;;;;;5055655;28;20021;-65
2022/05/14 08:51:15;;;;;;;18.27;3.75;;;35.40;59.00;;;;;;5037606;28;20487;-66
2022/05/14 08:53:42;;;;;;;18.42;3.85;;;35.70;57.90;;;;;;5055528;28;20025;-62
2022/05/14 08:56:16;;;;;;;16.88;4.13;;;36.00;56.40;;;;;;5055226;28;20112;-66
2022/05/14 08:59:03;;;;;;;18.67;5.35;;;36.10;56.10;;;;;;5055561;28;20107;-64
2022/05/14 09:01:33;;;;;;;13.00;3.97;;;36.40;54.70;;;;;;5055339;28;20025;-66
2022/05/14 09:03:58;;;;;;;15.13;4.32;;;36.70;53.70;;;;;;5053974;28;20446;-64
2022/05/14 09:06:24;;;;;;;15.60;3.80;;;36.90;53.60;;;;;;5052702;28;20024;-64
2022/05/14 09:08:50;;;;;;;16.90;4.53;;;37.00;52.50;;;;;;5054805;28;20028;-62
2022/05/14 09:11:26;;;;;;;16.58;4.00;;;37.10;51.60;;;;;;5053322;28;20029;-63
2022/05/14 09:13:55;;;;;;;15.77;3.75;;;37.50;51.50;;;;;;5054446;28;20028;-65
2022/05/14 09:16:33;;;;;;;12.77;4.35;;;37.70;50.90;;;;;;5052344;28;20040;-63
2022/05/14 09:18:59;;;;;;;14.75;4.28;;;37.50;50.60;;;;;;5054947;28;20024;-67
2022/05/14 09:21:31;;;;;;;15.05;3.33;;;37.40;50.20;;;;;;5054140;28;20028;-66
2022/05/14 09:23:59;;;;;;;16.50;3.83;;;37.40;49.20;;;;;;5060155;28;20033;-66
2022/05/14 09:26:34;;;;;;;12.75;4.13;;;37.40;49.40;;;;;;5056126;28;20021;-64
2022/05/14 09:29:12;;;;;;;15.25;3.65;;;37.60;49.10;;;;;;5053440;28;20040;-66
2022/05/14 09:32:00;;;;;;;16.80;4.00;;;37.80;48.10;;;;;;5054194;28;20112;-63
2022/05/14 09:34:28;;;;;;;17.15;4.10;;;37.70;48.50;;;;;;5054888;28;20025;-63
2022/05/14 09:37:09;;;;;;;16.08;3.20;;;37.60;47.80;;;;;;5054251;28;20039;-63
2022/05/14 09:39:35;;;;;;;17.65;4.18;;;37.50;47.50;;;;;;5058234;28;20153;-63
2022/05/14 09:42:01;;;;;;;15.43;3.85;;;37.60;47.50;;;;;;5074517;28;20054;-63
2022/05/14 09:44:44;;;;;;;15.80;4.00;;;37.60;47.50;;;;;;5074704;28;20063;-65
2022/05/14 09:47:23;;;;;;;18.83;4.13;;;37.80;47.50;;;;;;5054909;28;20082;-65
2022/05/14 09:49:59;;;;;;;17.38;4.53;;;37.80;46.30;;;;;;5034536;28;20033;-65
2022/05/14 09:52:32;;;;;;;14.38;3.80;;;38.00;46.00;;;;;;5043285;28;20031;-66
2022/05/14 09:54:59;;;;;;;18.65;4.38;;;38.30;45.90;;;;;;5037478;28;20029;-64
2022/05/14 09:57:43;;;;;;;14.23;3.90;;;38.30;45.50;;;;;;5056654;28;20457;-63
2022/05/14 10:00:29;;;;;;;19.75;3.50;;;38.10;45.50;;;;;;5044888;28;20483;-67
2022/05/14 10:03:12;;;;;;;15.35;3.80;;;38.20;45.50;;;;;;5046546;28;20021;-67
2022/05/14 10:05:50;;;;;;;17.08;3.75;;;38.20;45.70;;;;;;5054239;28;20013;-65
2022/05/14 10:08:33;;;;;;;15.52;3.45;;;38.10;45.60;;;;;;5054277;28;20044;-66
2022/05/14 10:11:17;;;;;;;16.00;4.18;;;38.10;45.10;;;;;;5054184;28;20029;-67
2022/05/14 10:14:09;;;;;;;14.90;3.65;;;38.20;44.80;;;;;;5049354;28;20100;-63
2022/05/14 10:16:56;;;;;;;20.02;4.88;;;38.40;44.00;;;;;;5033257;28;20026;-63
2022/05/14 10:19:27;;;;;;;11.63;3.63;;;38.90;43.20;;;;;;5033969;28;20040;-63
2022/05/14 10:22:15;;;;;;;15.93;4.05;;;39.00;43.80;;;;;;5033844;28;20022;-63
2022/05/14 10:27:53;;;;;;;14.23;3.78;;;38.60;43.00;;;;;;5033991;28;20492;-63
2022/05/14 10:30:22;;;;;;;16.70;4.65;;;38.50;43.70;;;;;;5033048;28;20405;-65
2022/05/14 10:33:02;;;;;;;15.95;3.58;;;38.30;43.60;;;;;;5033498;28;20022;-63
2022/05/14 10:35:46;;;;;;;16.38;4.05;;;38.20;43.30;;;;;;5033412;28;20108;-62
2022/05/14 10:38:24;;;;;;;16.60;4.32;;;38.00;43.30;;;;;;5033622;28;20032;-66
2022/05/14 10:40:56;;;;;;;13.35;3.55;;;37.90;43.50;;;;;;5050689;28;20021;-65
2022/05/14 10:43:29;;;;;;;11.38;3.45;;;37.90;43.50;;;;;;5053254;28;20048;-65
2022/05/14 10:45:57;;;;;;;21.55;4.22;;;38.40;43.30;;;;;;5053521;28;20028;-65
2022/05/14 10:48:46;;;;;;;15.15;3.45;;;38.90;42.90;;;;;;5053394;28;20063;-63
2022/05/14 10:51:22;;;;;;;16.33;3.50;;;39.20;42.50;;;;;;5053497;28;20025;-64
2022/05/14 10:53:48;;;;;;;13.02;3.28;;;39.40;42.50;;;;;;5052654;28;20021;-63
2022/05/14 10:56:22;;;;;;;13.07;3.70;;;39.60;42.20;;;;;;5051214;28;20412;-63
2022/05/14 10:59:11;;;;;;;13.68;3.67;;;39.70;42.30;;;;;;5052387;28;20446;-63
2022/05/14 11:01:59;;;;;;;14.68;3.50;;;39.70;41.80;;;;;;5053134;28;20017;-63
2022/05/14 11:04:29;;;;;;;16.42;3.90;;;39.20;42.00;;;;;;5053144;28;20013;-63
2022/05/14 11:07:00;;;;;;;14.50;3.15;;;38.80;41.90;;;;;;5053010;28;20057;-63
2022/05/14 11:09:45;;;;;;;14.90;3.60;;;38.40;41.80;;;;;;5052813;28;20347;-63
2022/05/14 11:12:19;;;;;;;11.82;3.42;;;38.10;42.60;;;;;;5049515;28;20029;-63
2022/05/14 11:14:49;;;;;;;16.60;3.72;;;38.10;42.30;;;;;;5051693;28;20024;-63
2022/05/14 11:17:23;;;;;;;15.05;3.35;;;38.20;42.20;;;;;;5052634;28;20033;-63
2022/05/14 11:20:02;;;;;;;11.50;3.03;;;38.40;42.20;;;;;;5052965;28;20021;-63
2022/05/14 11:22:42;;;;;;;18.70;3.75;;;38.70;42.00;;;;;;5051890;28;20024;-63
2022/05/14 11:25:11;;;;;;;13.18;3.88;;;39.00;41.70;;;;;;5052304;28;20044;-63
2022/05/14 11:27:38;;;;;;;14.13;3.33;;;39.20;42.00;;;;;;5052853;28;20031;-63
2022/05/14 11:30:12;;;;;;;13.00;3.28;;;39.40;41.60;;;;;;5052834;28;20132;-63
2022/05/14 11:32:46;;;;;;;12.25;3.13;;;39.70;41.10;;;;;;5052988;28;20380;-63
2022/05/14 11:35:13;;;;;;;14.63;3.78;;;39.70;41.40;;;;;;5052823;28;20377;-63
2022/05/14 11:37:43;;;;;;;15.00;3.70;;;39.50;41.20;;;;;;5051361;28;20048;-62
2022/05/14 11:40:21;;;;;;;19.37;3.97;;;39.60;41.30;;;;;;5052760;28;20017;-63
2022/05/14 11:43:20;;;;;;;15.10;3.53;;;39.60;41.10;;;;;;5050955;28;20032;-63
2022/05/14 11:46:11;;;;;;;10.40;3.15;;;39.70;41.00;;;;;;5049331;28;20029;-63
2022/05/14 11:48:55;;;;;;;;;;;39.60;41.10;;;;;;5052334;28;20473;-63
2022/05/14 11:51:29;;;;;;;16.27;3.13;;;39.20;40.90;;;;;;5051518;28;19992;-62
2022/05/14 11:54:09;;;;;;;14.07;3.20;;;38.80;41.00;;;;;;5052531;28;20025;-63
2022/05/14 11:56:41;;;;;;;16.17;3.43;;;38.60;41.00;;;;;;5052476;28;20037;-62
2022/05/14 11:59:14;;;;;;;13.00;3.30;;;38.30;41.40;;;;;;5052418;28;20253;-62
2022/05/14 12:01:45;;;;;;;17.02;3.40;;;37.90;41.30;;;;;;5052052;28;20029;-63
2022/05/14 12:04:30;;;;;;;15.60;3.42;;;37.30;41.70;;;;;;5052080;28;20021;-62
2022/05/14 12:07:07;;;;;;;12.30;3.17;;;37.00;42.20;;;;;;5052070;28;20474;-62
2022/05/14 12:10:04;;;;;;;12.02;3.28;;;36.90;42.20;;;;;;5052250;28;20507;-62
2022/05/14 12:12:55;;;;;;;16.52;3.45;;;37.00;42.30;;;;;;5052059;28;20029;-62
2022/05/14 12:15:24;;;;;;;12.43;3.10;;;36.10;42.10;;;;;;5052326;28;20035;-62
2022/05/14 12:17:52;;;;;;;12.90;3.60;;;35.80;42.80;;;;;;5052198;28;20033;-62
2022/05/14 12:20:21;;;;;;;11.07;2.97;;;36.10;42.70;;;;;;5051848;28;20056;-62
2022/05/14 12:22:59;;;;;;;14.07;3.33;;;36.80;42.40;;;;;;5051560;28;20457;-62
2022/05/14 12:25:56;;;;;;;14.35;3.88;;;37.20;42.20;;;;;;5052274;28;20091;-62
2022/05/14 12:28:31;;;;;;;13.27;3.20;;;37.20;42.10;;;;;;5029127;28;20112;-62
2022/05/14 12:34:02;;;;;;;16.65;3.88;;;37.50;41.90;;;;;;5052235;28;20032;-63
2022/05/14 12:36:40;;;;;;;13.38;3.05;;;37.40;41.70;;;;;;5051796;28;20036;-62
2022/05/14 12:39:21;;;;;;;13.98;3.30;;;37.00;42.00;;;;;;5051991;28;20122;-63
2022/05/14 12:41:53;;;;;;;16.10;4.25;;;36.50;42.10;;;;;;5050774;28;20392;-63
2022/05/14 12:44:28;;;;;;;14.65;3.63;;;35.90;42.10;;;;;;5052063;28;20528;-63
2022/05/14 12:46:58;;;;;;;13.20;3.30;;;35.20;43.00;;;;;;5050820;28;20020;-62
2022/05/14 12:49:50;;;;;;;13.07;3.40;;;34.50;43.50;;;;;;5051309;28;20025;-65
2022/05/14 12:52:20;;;;;;;16.67;3.35;;;34.00;44.20;;;;;;5049913;28;20044;-62
2022/05/14 12:54:55;;;;;;;13.32;3.40;;;33.40;44.20;;;;;;5050564;28;20025;-62
2022/05/14 12:57:22;;;;;;;15.18;3.42;;;32.80;44.70;;;;;;5054475;28;20033;-62
2022/05/14 12:59:48;;;;;;;12.98;2.83;;;32.30;45.50;;;;;;5055258;28;20361;-62
2022/05/14 13:02:29;;;;;;;16.23;3.30;;;31.80;45.90;;;;;;5055833;28;20021;-62
2022/05/14 13:05:03;;;;;;;14.65;3.42;;;31.30;46.50;;;;;;5055322;28;20457;-62
2022/05/14 13:07:30;;;;;;;13.50;3.47;;;30.70;47.00;;;;;;5055700;28;20442;-62
2022/05/14 13:09:57;;;;;;;14.35;2.95;;;30.20;47.10;;;;;;5054121;28;20021;-62
2022/05/14 13:12:29;;;;;;;16.80;3.42;;;29.70;48.10;;;;;;5053975;28;20048;-63